Tikitiboo — WDH4636 — position and weather

sailwx.info

Track history (hours):
 
Tides and Currents Weather Stations Pressure Air Temp Water Temp Dewpoint Dewpoint Depression Visibility Wind Speed Wind Dir Waves Ship Positions

Tikitiboo

Owner: Geant Carter Marine, LLC, Clear Lake Shores, TX. More information available from US FCC via Universal Licensing System and Coast Guard Vessel Documentation Center.

Last reported at 2017-Nov-17 14:29 UTC. Time now 2017-Dec-15 12:15 UTC.
Position N 32°08' W 080°49'.
Warning: this ship's position is 27 days out of date.

Length 15 m.

Type: Sailing vessel. MMSI: 367619740.

Date/timePositionNaut miles runAvg speedWind from/ knotsBaromVisibWave heightAir tempDewpointWater temp
2017-Nov-17 14:29N 32°08' W 080°49'2 4.1
2017-Nov-17 13:58N 32°06' W 080°50'3 6.3
2017-Nov-17 13:30N 32°04' W 080°50'3 6.6
2017-Nov-17 13:00N 32°01' W 080°48'5 6.9
2017-Nov-17 12:20N 31°60' W 080°43'4 6.5
2017-Nov-17 11:39N 32°00' W 080°37'1 5.9
2017-Nov-17 11:27N 32°01' W 080°36'  
2017-Nov-08 18:55N 34°35' W 076°45'3 7.8
2017-Nov-08 18:30N 34°38' W 076°43'2 4.8
2017-Nov-08 18:00N 34°39' W 076°41'3 6.4
2017-Nov-08 17:30N 34°43' W 076°41'1 1.5
2017-Nov-08 16:59N 34°43' W 076°40'  
Track history (hours):
 
Tides and Currents Weather Stations Pressure Air Temp Water Temp Dewpoint Dewpoint Depression Visibility Wind Speed Wind Dir Waves Ship Positions

Tikitiboo

Owner: Geant Carter Marine, LLC, Clear Lake Shores, TX. More information available from US FCC via Universal Licensing System and Coast Guard Vessel Documentation Center.

Last reported at 2017-Nov-17 14:29 UTC. Time now 2017-Dec-15 12:15 UTC.
Position N 32°08' W 080°49'.
Warning: this ship's position is 27 days out of date.

Length 15 m.

Type: Sailing vessel. MMSI: 367619740.

Date/timePositionNaut miles runAvg speedWind from/ knotsBaromVisibWave heightAir tempDewpointWater temp
2017-Nov-17 14:29N 32°08' W 080°49'2 4.1
2017-Nov-17 13:58N 32°06' W 080°50'3 6.3
2017-Nov-17 13:30N 32°04' W 080°50'3 6.6
2017-Nov-17 13:00N 32°01' W 080°48'5 6.9
2017-Nov-17 12:20N 31°60' W 080°43'4 6.5
2017-Nov-17 11:39N 32°00' W 080°37'1 5.9
2017-Nov-17 11:27N 32°01' W 080°36'  
2017-Nov-08 18:55N 34°35' W 076°45'3 7.8
2017-Nov-08 18:30N 34°38' W 076°43'2 4.8
2017-Nov-08 18:00N 34°39' W 076°41'3 6.4
2017-Nov-08 17:30N 34°43' W 076°41'1 1.5
2017-Nov-08 16:59N 34°43' W 076°40'  

Dump ship's entire track history